sensor_id;sensor_type;location;lat;lon;timestamp;P1;durP1;ratioP1;P2;durP2;ratioP2
46717;SDS011;32448;44.960;-0.698;2024-02-23T00:00:38;14.52;;;2.45;;
46717;SDS011;32448;44.960;-0.698;2024-02-23T00:03:05;13.32;;;2.03;;
46717;SDS011;32448;44.960;-0.698;2024-02-23T00:05:32;13.35;;;2.60;;
46717;SDS011;32448;44.960;-0.698;2024-02-23T00:07:59;16.85;;;2.22;;
46717;SDS011;32448;44.960;-0.698;2024-02-23T00:10:26;24.88;;;2.75;;
46717;SDS011;32448;44.960;-0.698;2024-02-23T00:12:53;19.77;;;2.72;;
46717;SDS011;32448;44.960;-0.698;2024-02-23T00:15:19;18.85;;;2.88;;
46717;SDS011;32448;44.960;-0.698;2024-02-23T00:17:46;18.17;;;2.80;;
46717;SDS011;32448;44.960;-0.698;2024-02-23T00:20:13;19.10;;;4.15;;
46717;SDS011;32448;44.960;-0.698;2024-02-23T00:22:41;15.32;;;2.88;;
46717;SDS011;32448;44.960;-0.698;2024-02-23T00:25:08;16.70;;;2.40;;
46717;SDS011;32448;44.960;-0.698;2024-02-23T00:27:35;14.15;;;2.05;;
46717;SDS011;32448;44.960;-0.698;2024-02-23T00:30:03;21.60;;;3.00;;
46717;SDS011;32448;44.960;-0.698;2024-02-23T00:32:30;14.07;;;3.45;;
46717;SDS011;32448;44.960;-0.698;2024-02-23T00:34:57;18.25;;;3.00;;
46717;SDS011;32448;44.960;-0.698;2024-02-23T00:37:24;16.90;;;2.97;;
46717;SDS011;32448;44.960;-0.698;2024-02-23T00:39:51;18.98;;;3.05;;
46717;SDS011;32448;44.960;-0.698;2024-02-23T00:42:18;17.02;;;3.20;;
46717;SDS011;32448;44.960;-0.698;2024-02-23T00:44:47;15.27;;;2.90;;
46717;SDS011;32448;44.960;-0.698;2024-02-23T00:47:13;16.00;;;2.50;;
46717;SDS011;32448;44.960;-0.698;2024-02-23T00:49:40;14.18;;;2.42;;
46717;SDS011;32448;44.960;-0.698;2024-02-23T00:52:07;18.08;;;2.83;;
46717;SDS011;32448;44.960;-0.698;2024-02-23T00:54:34;16.15;;;3.13;;
46717;SDS011;32448;44.960;-0.698;2024-02-23T00:57:01;14.38;;;2.45;;
46717;SDS011;32448;44.960;-0.698;2024-02-23T00:59:28;14.55;;;3.10;;
46717;SDS011;32448;44.960;-0.698;2024-02-23T01:01:55;18.02;;;2.45;;
46717;SDS011;32448;44.960;-0.698;2024-02-23T01:04:22;20.83;;;3.22;;
46717;SDS011;32448;44.960;-0.698;2024-02-23T01:06:49;19.60;;;3.13;;
46717;SDS011;32448;44.960;-0.698;2024-02-23T01:09:18;14.68;;;2.55;;
46717;SDS011;32448;44.960;-0.698;2024-02-23T01:11:50;13.60;;;2.53;;
46717;SDS011;32448;44.960;-0.698;2024-02-23T01:14:17;20.73;;;3.15;;
46717;SDS011;32448;44.960;-0.698;2024-02-23T01:16:44;16.52;;;2.40;;
46717;SDS011;32448;44.960;-0.698;2024-02-23T01:19:11;12.13;;;2.17;;
46717;SDS011;32448;44.960;-0.698;2024-02-23T01:21:38;9.88;;;2.10;;
46717;SDS011;32448;44.960;-0.698;2024-02-23T01:24:05;16.52;;;2.63;;
46717;SDS011;32448;44.960;-0.698;2024-02-23T01:26:32;11.25;;;2.00;;
46717;SDS011;32448;44.960;-0.698;2024-02-23T01:28:59;11.00;;;1.77;;
46717;SDS011;32448;44.960;-0.698;2024-02-23T01:31:26;12.68;;;1.85;;
46717;SDS011;32448;44.960;-0.698;2024-02-23T01:33:53;14.65;;;2.53;;
46717;SDS011;32448;44.960;-0.698;2024-02-23T01:36:20;15.80;;;2.63;;
46717;SDS011;32448;44.960;-0.698;2024-02-23T01:38:47;12.13;;;2.20;;
46717;SDS011;32448;44.960;-0.698;2024-02-23T01:41:14;15.40;;;2.42;;
46717;SDS011;32448;44.960;-0.698;2024-02-23T01:43:41;15.55;;;2.97;;
46717;SDS011;32448;44.960;-0.698;2024-02-23T01:46:08;17.58;;;2.40;;
46717;SDS011;32448;44.960;-0.698;2024-02-23T01:48:35;10.93;;;1.95;;
46717;SDS011;32448;44.960;-0.698;2024-02-23T01:51:02;19.25;;;2.53;;
46717;SDS011;32448;44.960;-0.698;2024-02-23T01:53:29;9.88;;;1.92;;
46717;SDS011;32448;44.960;-0.698;2024-02-23T01:55:57;11.73;;;2.00;;
46717;SDS011;32448;44.960;-0.698;2024-02-23T01:58:26;13.27;;;2.25;;
46717;SDS011;32448;44.960;-0.698;2024-02-23T02:00:53;10.85;;;1.42;;
46717;SDS011;32448;44.960;-0.698;2024-02-23T02:03:20;11.95;;;1.73;;
46717;SDS011;32448;44.960;-0.698;2024-02-23T02:05:47;11.80;;;1.63;;
46717;SDS011;32448;44.960;-0.698;2024-02-23T02:08:16;18.50;;;1.85;;
46717;SDS011;32448;44.960;-0.698;2024-02-23T02:10:43;11.27;;;2.00;;
46717;SDS011;32448;44.960;-0.698;2024-02-23T02:13:12;12.57;;;1.98;;
46717;SDS011;32448;44.960;-0.698;2024-02-23T02:15:39;19.98;;;2.55;;
46717;SDS011;32448;44.960;-0.698;2024-02-23T02:18:06;7.57;;;1.75;;
46717;SDS011;32448;44.960;-0.698;2024-02-23T02:20:33;13.50;;;2.17;;
46717;SDS011;32448;44.960;-0.698;2024-02-23T02:23:02;12.75;;;2.25;;
46717;SDS011;32448;44.960;-0.698;2024-02-23T02:25:29;10.48;;;2.25;;
46717;SDS011;32448;44.960;-0.698;2024-02-23T02:27:56;10.32;;;1.30;;
46717;SDS011;32448;44.960;-0.698;2024-02-23T02:30:23;8.88;;;1.50;;
46717;SDS011;32448;44.960;-0.698;2024-02-23T02:32:50;8.95;;;1.60;;
46717;SDS011;32448;44.960;-0.698;2024-02-23T02:35:17;8.48;;;1.30;;
46717;SDS011;32448;44.960;-0.698;2024-02-23T02:37:44;10.57;;;1.33;;
46717;SDS011;32448;44.960;-0.698;2024-02-23T02:40:11;15.15;;;2.90;;
46717;SDS011;32448;44.960;-0.698;2024-02-23T02:42:37;13.70;;;2.88;;
46717;SDS011;32448;44.960;-0.698;2024-02-23T02:45:04;10.02;;;1.60;;
46717;SDS011;32448;44.960;-0.698;2024-02-23T02:47:31;9.70;;;1.58;;
46717;SDS011;32448;44.960;-0.698;2024-02-23T02:49:58;13.60;;;2.53;;
46717;SDS011;32448;44.960;-0.698;2024-02-23T02:52:25;15.65;;;2.03;;
46717;SDS011;32448;44.960;-0.698;2024-02-23T02:54:52;11.75;;;2.30;;
46717;SDS011;32448;44.960;-0.698;2024-02-23T02:57:19;14.82;;;1.73;;
46717;SDS011;32448;44.960;-0.698;2024-02-23T02:59:46;8.27;;;1.17;;
46717;SDS011;32448;44.960;-0.698;2024-02-23T03:02:13;11.57;;;1.67;;
46717;SDS011;32448;44.960;-0.698;2024-02-23T03:04:49;13.43;;;1.80;;
46717;SDS011;32448;44.960;-0.698;2024-02-23T03:07:17;14.95;;;2.20;;
46717;SDS011;32448;44.960;-0.698;2024-02-23T03:09:44;11.85;;;1.88;;
46717;SDS011;32448;44.960;-0.698;2024-02-23T03:12:11;13.05;;;1.52;;
46717;SDS011;32448;44.960;-0.698;2024-02-23T03:14:38;12.52;;;1.67;;
46717;SDS011;32448;44.960;-0.698;2024-02-23T03:17:07;9.27;;;1.50;;
46717;SDS011;32448;44.960;-0.698;2024-02-23T03:19:38;11.73;;;1.65;;
46717;SDS011;32448;44.960;-0.698;2024-02-23T03:22:05;5.00;;;1.20;;
46717;SDS011;32448;44.960;-0.698;2024-02-23T03:24:32;15.07;;;1.65;;
46717;SDS011;32448;44.960;-0.698;2024-02-23T03:26:59;8.65;;;1.75;;
46717;SDS011;32448;44.960;-0.698;2024-02-23T03:29:27;7.57;;;1.52;;
46717;SDS011;32448;44.960;-0.698;2024-02-23T03:31:56;9.18;;;1.25;;
46717;SDS011;32448;44.960;-0.698;2024-02-23T03:34:23;17.23;;;2.40;;
46717;SDS011;32448;44.960;-0.698;2024-02-23T03:36:51;11.25;;;2.03;;
46717;SDS011;32448;44.960;-0.698;2024-02-23T03:39:17;8.63;;;1.45;;
46717;SDS011;32448;44.960;-0.698;2024-02-23T03:41:44;12.27;;;1.48;;
46717;SDS011;32448;44.960;-0.698;2024-02-23T03:44:11;8.95;;;1.75;;
46717;SDS011;32448;44.960;-0.698;2024-02-23T03:46:38;4.70;;;1.23;;
46717;SDS011;32448;44.960;-0.698;2024-02-23T03:49:05;7.63;;;1.45;;
46717;SDS011;32448;44.960;-0.698;2024-02-23T03:51:32;5.30;;;1.02;;
46717;SDS011;32448;44.960;-0.698;2024-02-23T03:54:01;5.60;;;1.20;;
46717;SDS011;32448;44.960;-0.698;2024-02-23T03:56:28;12.65;;;1.60;;
46717;SDS011;32448;44.960;-0.698;2024-02-23T03:58:55;9.00;;;2.47;;
46717;SDS011;32448;44.960;-0.698;2024-02-23T04:01:22;11.85;;;1.92;;
46717;SDS011;32448;44.960;-0.698;2024-02-23T04:03:49;12.68;;;2.20;;
46717;SDS011;32448;44.960;-0.698;2024-02-23T04:06:16;14.32;;;2.22;;
46717;SDS011;32448;44.960;-0.698;2024-02-23T04:08:44;14.30;;;1.98;;
46717;SDS011;32448;44.960;-0.698;2024-02-23T04:11:14;19.40;;;3.10;;
46717;SDS011;32448;44.960;-0.698;2024-02-23T04:13:41;14.10;;;1.58;;
46717;SDS011;32448;44.960;-0.698;2024-02-23T04:16:07;13.40;;;1.83;;
46717;SDS011;32448;44.960;-0.698;2024-02-23T04:18:34;11.13;;;2.17;;
46717;SDS011;32448;44.960;-0.698;2024-02-23T04:21:01;14.43;;;1.60;;
46717;SDS011;32448;44.960;-0.698;2024-02-23T04:23:28;18.77;;;1.92;;
46717;SDS011;32448;44.960;-0.698;2024-02-23T04:25:55;14.00;;;1.90;;
46717;SDS011;32448;44.960;-0.698;2024-02-23T04:28:22;16.58;;;1.70;;
46717;SDS011;32448;44.960;-0.698;2024-02-23T04:30:49;16.52;;;2.00;;
46717;SDS011;32448;44.960;-0.698;2024-02-23T04:33:16;15.35;;;1.75;;
46717;SDS011;32448;44.960;-0.698;2024-02-23T04:35:43;13.90;;;2.20;;
46717;SDS011;32448;44.960;-0.698;2024-02-23T04:38:10;12.75;;;1.65;;
46717;SDS011;32448;44.960;-0.698;2024-02-23T04:40:37;17.63;;;2.15;;
46717;SDS011;32448;44.960;-0.698;2024-02-23T04:43:04;11.98;;;1.83;;
46717;SDS011;32448;44.960;-0.698;2024-02-23T04:45:31;14.68;;;1.83;;
46717;SDS011;32448;44.960;-0.698;2024-02-23T04:47:58;13.90;;;2.20;;
46717;SDS011;32448;44.960;-0.698;2024-02-23T04:50:25;9.88;;;2.15;;
46717;SDS011;32448;44.960;-0.698;2024-02-23T04:52:51;10.63;;;2.00;;
46717;SDS011;32448;44.960;-0.698;2024-02-23T04:55:18;9.90;;;1.70;;
46717;SDS011;32448;44.960;-0.698;2024-02-23T04:57:45;14.63;;;2.38;;
46717;SDS011;32448;44.960;-0.698;2024-02-23T05:00:12;13.85;;;1.88;;
46717;SDS011;32448;44.960;-0.698;2024-02-23T05:02:39;17.15;;;2.10;;
46717;SDS011;32448;44.960;-0.698;2024-02-23T05:05:06;13.65;;;1.90;;
46717;SDS011;32448;44.960;-0.698;2024-02-23T05:07:34;12.93;;;1.55;;
46717;SDS011;32448;44.960;-0.698;2024-02-23T05:10:01;12.07;;;1.60;;
46717;SDS011;32448;44.960;-0.698;2024-02-23T05:12:28;15.55;;;1.90;;
46717;SDS011;32448;44.960;-0.698;2024-02-23T05:14:55;14.13;;;1.67;;
46717;SDS011;32448;44.960;-0.698;2024-02-23T05:17:22;11.73;;;1.88;;
46717;SDS011;32448;44.960;-0.698;2024-02-23T05:19:49;14.52;;;2.45;;
46717;SDS011;32448;44.960;-0.698;2024-02-23T05:22:16;14.70;;;2.13;;
46717;SDS011;32448;44.960;-0.698;2024-02-23T05:24:44;8.40;;;1.65;;
46717;SDS011;32448;44.960;-0.698;2024-02-23T05:27:11;7.85;;;2.20;;
46717;SDS011;32448;44.960;-0.698;2024-02-23T05:29:38;18.63;;;7.07;;
46717;SDS011;32448;44.960;-0.698;2024-02-23T05:32:05;27.65;;;12.43;;
46717;SDS011;32448;44.960;-0.698;2024-02-23T05:34:32;23.20;;;10.82;;
46717;SDS011;32448;44.960;-0.698;2024-02-23T05:36:59;14.07;;;8.70;;
46717;SDS011;32448;44.960;-0.698;2024-02-23T05:39:26;14.73;;;4.20;;
46717;SDS011;32448;44.960;-0.698;2024-02-23T05:41:53;11.38;;;2.45;;
46717;SDS011;32448;44.960;-0.698;2024-02-23T05:44:20;9.75;;;1.67;;
46717;SDS011;32448;44.960;-0.698;2024-02-23T05:46:47;7.97;;;2.15;;
46717;SDS011;32448;44.960;-0.698;2024-02-23T05:49:14;8.02;;;2.20;;
46717;SDS011;32448;44.960;-0.698;2024-02-23T05:51:41;11.82;;;3.25;;
46717;SDS011;32448;44.960;-0.698;2024-02-23T05:54:08;11.63;;;2.88;;
46717;SDS011;32448;44.960;-0.698;2024-02-23T05:56:35;21.77;;;7.82;;
46717;SDS011;32448;44.960;-0.698;2024-02-23T05:59:02;31.73;;;13.55;;
46717;SDS011;32448;44.960;-0.698;2024-02-23T06:01:29;24.33;;;9.40;;
46717;SDS011;32448;44.960;-0.698;2024-02-23T06:03:55;27.77;;;10.98;;
46717;SDS011;32448;44.960;-0.698;2024-02-23T06:06:22;33.72;;;14.80;;
46717;SDS011;32448;44.960;-0.698;2024-02-23T06:08:50;30.77;;;13.45;;
46717;SDS011;32448;44.960;-0.698;2024-02-23T06:11:17;16.13;;;6.53;;
46717;SDS011;32448;44.960;-0.698;2024-02-23T06:13:44;21.15;;;6.35;;
46717;SDS011;32448;44.960;-0.698;2024-02-23T06:16:11;28.08;;;12.05;;
46717;SDS011;32448;44.960;-0.698;2024-02-23T06:18:38;43.33;;;18.33;;
46717;SDS011;32448;44.960;-0.698;2024-02-23T06:21:12;30.00;;;12.50;;
46717;SDS011;32448;44.960;-0.698;2024-02-23T06:23:42;31.10;;;13.07;;
46717;SDS011;32448;44.960;-0.698;2024-02-23T06:26:09;32.13;;;14.02;;
46717;SDS011;32448;44.960;-0.698;2024-02-23T06:28:37;20.35;;;7.18;;
46717;SDS011;32448;44.960;-0.698;2024-02-23T06:31:05;17.38;;;6.07;;
46717;SDS011;32448;44.960;-0.698;2024-02-23T06:33:32;13.90;;;4.68;;
46717;SDS011;32448;44.960;-0.698;2024-02-23T06:35:59;17.15;;;7.13;;
46717;SDS011;32448;44.960;-0.698;2024-02-23T06:38:27;14.48;;;3.53;;
46717;SDS011;32448;44.960;-0.698;2024-02-23T06:40:54;13.20;;;4.45;;
46717;SDS011;32448;44.960;-0.698;2024-02-23T06:43:22;17.38;;;7.45;;
46717;SDS011;32448;44.960;-0.698;2024-02-23T06:45:49;15.00;;;5.50;;
46717;SDS011;32448;44.960;-0.698;2024-02-23T06:48:17;13.07;;;4.68;;
46717;SDS011;32448;44.960;-0.698;2024-02-23T06:50:44;11.43;;;3.95;;
46717;SDS011;32448;44.960;-0.698;2024-02-23T06:53:11;5.88;;;1.75;;
46717;SDS011;32448;44.960;-0.698;2024-02-23T06:55:38;8.75;;;2.10;;
46717;SDS011;32448;44.960;-0.698;2024-02-23T06:58:04;8.30;;;1.90;;
46717;SDS011;32448;44.960;-0.698;2024-02-23T07:00:33;8.93;;;1.75;;
46717;SDS011;32448;44.960;-0.698;2024-02-23T07:03:01;6.28;;;1.70;;
46717;SDS011;32448;44.960;-0.698;2024-02-23T07:05:30;4.30;;;1.20;;
46717;SDS011;32448;44.960;-0.698;2024-02-23T07:07:57;8.43;;;1.65;;
46717;SDS011;32448;44.960;-0.698;2024-02-23T07:10:24;9.27;;;2.00;;
46717;SDS011;32448;44.960;-0.698;2024-02-23T07:12:52;9.50;;;1.85;;
46717;SDS011;32448;44.960;-0.698;2024-02-23T07:15:22;7.07;;;1.45;;
46717;SDS011;32448;44.960;-0.698;2024-02-23T07:17:51;7.18;;;1.70;;
46717;SDS011;32448;44.960;-0.698;2024-02-23T07:20:21;7.70;;;1.95;;
46717;SDS011;32448;44.960;-0.698;2024-02-23T07:22:49;10.38;;;2.22;;
46717;SDS011;32448;44.960;-0.698;2024-02-23T07:25:19;11.73;;;1.73;;
46717;SDS011;32448;44.960;-0.698;2024-02-23T07:27:49;6.50;;;2.08;;
46717;SDS011;32448;44.960;-0.698;2024-02-23T07:30:17;9.27;;;2.17;;
46717;SDS011;32448;44.960;-0.698;2024-02-23T07:32:44;16.85;;;3.05;;
46717;SDS011;32448;44.960;-0.698;2024-02-23T07:35:18;19.00;;;9.93;;
46717;SDS011;32448;44.960;-0.698;2024-02-23T07:37:46;12.68;;;6.68;;
46717;SDS011;32448;44.960;-0.698;2024-02-23T07:40:13;13.63;;;3.65;;
46717;SDS011;32448;44.960;-0.698;2024-02-23T07:42:43;14.88;;;2.08;;
46717;SDS011;32448;44.960;-0.698;2024-02-23T07:45:10;13.43;;;3.55;;
46717;SDS011;32448;44.960;-0.698;2024-02-23T07:47:37;9.75;;;2.25;;
46717;SDS011;32448;44.960;-0.698;2024-02-23T07:50:04;11.27;;;2.03;;
46717;SDS011;32448;44.960;-0.698;2024-02-23T07:52:32;11.32;;;2.40;;
46717;SDS011;32448;44.960;-0.698;2024-02-23T07:54:58;13.25;;;1.98;;
46717;SDS011;32448;44.960;-0.698;2024-02-23T07:57:29;12.43;;;2.22;;
46717;SDS011;32448;44.960;-0.698;2024-02-23T07:59:57;11.52;;;1.63;;
46717;SDS011;32448;44.960;-0.698;2024-02-23T08:02:24;8.23;;;1.67;;
46717;SDS011;32448;44.960;-0.698;2024-02-23T08:04:51;6.32;;;1.63;;
46717;SDS011;32448;44.960;-0.698;2024-02-23T08:07:19;13.82;;;2.20;;
46717;SDS011;32448;44.960;-0.698;2024-02-23T08:09:46;7.78;;;1.38;;
46717;SDS011;32448;44.960;-0.698;2024-02-23T08:12:13;8.23;;;1.38;;
46717;SDS011;32448;44.960;-0.698;2024-02-23T08:14:41;5.65;;;1.05;;
46717;SDS011;32448;44.960;-0.698;2024-02-23T08:17:09;5.93;;;1.10;;
46717;SDS011;32448;44.960;-0.698;2024-02-23T08:19:37;6.55;;;1.02;;
46717;SDS011;32448;44.960;-0.698;2024-02-23T08:22:04;7.07;;;1.23;;
46717;SDS011;32448;44.960;-0.698;2024-02-23T08:24:30;5.30;;;0.88;;
46717;SDS011;32448;44.960;-0.698;2024-02-23T08:26:58;4.53;;;0.70;;
46717;SDS011;32448;44.960;-0.698;2024-02-23T08:29:25;45.28;;;12.82;;
46717;SDS011;32448;44.960;-0.698;2024-02-23T08:31:52;34.85;;;9.68;;
46717;SDS011;32448;44.960;-0.698;2024-02-23T08:34:19;73.03;;;18.45;;
46717;SDS011;32448;44.960;-0.698;2024-02-23T08:36:47;35.25;;;8.68;;
46717;SDS011;32448;44.960;-0.698;2024-02-23T08:39:13;11.40;;;2.20;;
46717;SDS011;32448;44.960;-0.698;2024-02-23T08:41:40;7.97;;;1.67;;
46717;SDS011;32448;44.960;-0.698;2024-02-23T08:44:07;12.85;;;2.83;;
46717;SDS011;32448;44.960;-0.698;2024-02-23T08:46:34;67.07;;;17.92;;
46717;SDS011;32448;44.960;-0.698;2024-02-23T08:49:01;88.45;;;25.50;;
46717;SDS011;32448;44.960;-0.698;2024-02-23T08:51:28;67.45;;;20.30;;
46717;SDS011;32448;44.960;-0.698;2024-02-23T08:53:54;31.60;;;8.48;;
46717;SDS011;32448;44.960;-0.698;2024-02-23T08:56:26;18.38;;;3.80;;
46717;SDS011;32448;44.960;-0.698;2024-02-23T08:58:53;10.82;;;1.58;;
46717;SDS011;32448;44.960;-0.698;2024-02-23T09:01:20;15.23;;;3.40;;
46717;SDS011;32448;44.960;-0.698;2024-02-23T09:03:47;20.15;;;5.35;;
46717;SDS011;32448;44.960;-0.698;2024-02-23T09:06:14;12.95;;;2.90;;
46717;SDS011;32448;44.960;-0.698;2024-02-23T09:08:41;20.38;;;6.18;;
46717;SDS011;32448;44.960;-0.698;2024-02-23T09:11:08;17.58;;;5.35;;
46717;SDS011;32448;44.960;-0.698;2024-02-23T09:13:38;18.27;;;6.28;;
46717;SDS011;32448;44.960;-0.698;2024-02-23T09:16:05;39.85;;;14.15;;
46717;SDS011;32448;44.960;-0.698;2024-02-23T09:18:33;25.95;;;8.55;;
46717;SDS011;32448;44.960;-0.698;2024-02-23T09:21:01;18.98;;;5.60;;
46717;SDS011;32448;44.960;-0.698;2024-02-23T09:23:28;12.25;;;3.63;;
46717;SDS011;32448;44.960;-0.698;2024-02-23T09:25:54;12.18;;;3.63;;
46717;SDS011;32448;44.960;-0.698;2024-02-23T09:28:21;14.90;;;3.72;;
46717;SDS011;32448;44.960;-0.698;2024-02-23T09:30:48;12.60;;;2.80;;
46717;SDS011;32448;44.960;-0.698;2024-02-23T09:33:15;8.07;;;2.25;;
46717;SDS011;32448;44.960;-0.698;2024-02-23T09:35:42;14.25;;;2.90;;
46717;SDS011;32448;44.960;-0.698;2024-02-23T09:38:09;13.57;;;3.80;;
46717;SDS011;32448;44.960;-0.698;2024-02-23T09:40:36;9.77;;;2.20;;
46717;SDS011;32448;44.960;-0.698;2024-02-23T09:43:03;15.20;;;3.75;;
46717;SDS011;32448;44.960;-0.698;2024-02-23T09:45:34;19.98;;;6.38;;
46717;SDS011;32448;44.960;-0.698;2024-02-23T09:48:01;12.07;;;3.20;;
46717;SDS011;32448;44.960;-0.698;2024-02-23T09:50:30;17.98;;;4.43;;
46717;SDS011;32448;44.960;-0.698;2024-02-23T09:52:58;20.60;;;5.95;;
46717;SDS011;32448;44.960;-0.698;2024-02-23T09:55:25;19.63;;;6.20;;
46717;SDS011;32448;44.960;-0.698;2024-02-23T09:57:54;16.48;;;6.20;;
46717;SDS011;32448;44.960;-0.698;2024-02-23T10:00:24;10.65;;;2.13;;
46717;SDS011;32448;44.960;-0.698;2024-02-23T10:02:52;10.05;;;1.50;;
46717;SDS011;32448;44.960;-0.698;2024-02-23T10:05:23;11.48;;;1.50;;
46717;SDS011;32448;44.960;-0.698;2024-02-23T10:08:00;8.90;;;1.70;;
46717;SDS011;32448;44.960;-0.698;2024-02-23T10:10:32;8.55;;;1.80;;
46717;SDS011;32448;44.960;-0.698;2024-02-23T10:13:00;9.55;;;2.50;;
46717;SDS011;32448;44.960;-0.698;2024-02-23T10:15:30;12.27;;;2.10;;
46717;SDS011;32448;44.960;-0.698;2024-02-23T10:17:58;12.80;;;1.92;;
46717;SDS011;32448;44.960;-0.698;2024-02-23T10:20:25;10.48;;;1.75;;
46717;SDS011;32448;44.960;-0.698;2024-02-23T10:22:52;7.10;;;1.63;;
46717;SDS011;32448;44.960;-0.698;2024-02-23T10:25:20;6.22;;;1.42;;
46717;SDS011;32448;44.960;-0.698;2024-02-23T10:27:47;22.27;;;6.20;;
46717;SDS011;32448;44.960;-0.698;2024-02-23T10:30:14;15.38;;;4.45;;
46717;SDS011;32448;44.960;-0.698;2024-02-23T10:32:42;11.52;;;1.70;;
46717;SDS011;32448;44.960;-0.698;2024-02-23T10:35:13;10.80;;;1.75;;
46717;SDS011;32448;44.960;-0.698;2024-02-23T10:37:42;12.55;;;1.90;;
46717;SDS011;32448;44.960;-0.698;2024-02-23T10:40:14;7.55;;;1.38;;
46717;SDS011;32448;44.960;-0.698;2024-02-23T10:42:43;8.85;;;2.00;;
46717;SDS011;32448;44.960;-0.698;2024-02-23T10:45:18;8.48;;;1.17;;
46717;SDS011;32448;44.960;-0.698;2024-02-23T10:47:45;11.55;;;1.42;;
46717;SDS011;32448;44.960;-0.698;2024-02-23T10:50:14;7.00;;;1.95;;
46717;SDS011;32448;44.960;-0.698;2024-02-23T10:52:42;5.82;;;1.90;;
46717;SDS011;32448;44.960;-0.698;2024-02-23T10:55:09;11.52;;;1.35;;
46717;SDS011;32448;44.960;-0.698;2024-02-23T10:57:36;8.50;;;1.65;;
46717;SDS011;32448;44.960;-0.698;2024-02-23T11:00:04;13.75;;;2.10;;
46717;SDS011;32448;44.960;-0.698;2024-02-23T11:02:36;6.55;;;1.15;;
46717;SDS011;32448;44.960;-0.698;2024-02-23T11:05:08;6.80;;;1.90;;
46717;SDS011;32448;44.960;-0.698;2024-02-23T11:07:39;19.85;;;7.75;;
46717;SDS011;32448;44.960;-0.698;2024-02-23T11:10:06;17.38;;;6.18;;
46717;SDS011;32448;44.960;-0.698;2024-02-23T11:12:35;6.07;;;1.80;;
46717;SDS011;32448;44.960;-0.698;2024-02-23T11:15:03;11.75;;;4.32;;
46717;SDS011;32448;44.960;-0.698;2024-02-23T11:17:31;23.73;;;9.00;;
46717;SDS011;32448;44.960;-0.698;2024-02-23T11:20:02;24.10;;;10.25;;
46717;SDS011;32448;44.960;-0.698;2024-02-23T11:22:31;18.35;;;4.32;;
46717;SDS011;32448;44.960;-0.698;2024-02-23T11:25:05;17.73;;;5.47;;
46717;SDS011;32448;44.960;-0.698;2024-02-23T11:27:38;29.05;;;8.73;;
46717;SDS011;32448;44.960;-0.698;2024-02-23T11:30:09;15.73;;;3.80;;
46717;SDS011;32448;44.960;-0.698;2024-02-23T11:32:42;15.65;;;3.38;;
46717;SDS011;32448;44.960;-0.698;2024-02-23T11:35:10;16.40;;;2.63;;
46717;SDS011;32448;44.960;-0.698;2024-02-23T11:37:48;9.60;;;2.60;;
46717;SDS011;32448;44.960;-0.698;2024-02-23T11:40:23;18.42;;;5.50;;
46717;SDS011;32448;44.960;-0.698;2024-02-23T11:42:52;17.90;;;4.55;;
46717;SDS011;32448;44.960;-0.698;2024-02-23T11:45:20;10.43;;;2.90;;
46717;SDS011;32448;44.960;-0.698;2024-02-23T11:47:48;14.18;;;4.88;;
46717;SDS011;32448;44.960;-0.698;2024-02-23T11:50:15;12.80;;;2.38;;
46717;SDS011;32448;44.960;-0.698;2024-02-23T11:52:46;13.55;;;1.95;;
46717;SDS011;32448;44.960;-0.698;2024-02-23T11:55:17;13.18;;;2.85;;
46717;SDS011;32448;44.960;-0.698;2024-02-23T11:57:49;11.57;;;2.20;;
46717;SDS011;32448;44.960;-0.698;2024-02-23T12:00:30;12.65;;;2.08;;
46717;SDS011;32448;44.960;-0.698;2024-02-23T12:02:57;10.70;;;2.25;;
46717;SDS011;32448;44.960;-0.698;2024-02-23T12:05:24;9.07;;;1.63;;
46717;SDS011;32448;44.960;-0.698;2024-02-23T12:07:51;12.15;;;2.00;;
46717;SDS011;32448;44.960;-0.698;2024-02-23T12:10:20;11.18;;;2.40;;
46717;SDS011;32448;44.960;-0.698;2024-02-23T12:12:47;9.02;;;1.90;;
46717;SDS011;32448;44.960;-0.698;2024-02-23T12:15:14;23.52;;;5.47;;
46717;SDS011;32448;44.960;-0.698;2024-02-23T12:17:50;10.50;;;3.20;;
46717;SDS011;32448;44.960;-0.698;2024-02-23T12:20:17;13.93;;;3.50;;
46717;SDS011;32448;44.960;-0.698;2024-02-23T12:22:45;14.68;;;3.83;;
46717;SDS011;32448;44.960;-0.698;2024-02-23T12:25:14;11.13;;;2.65;;
46717;SDS011;32448;44.960;-0.698;2024-02-23T12:27:42;15.93;;;3.20;;
46717;SDS011;32448;44.960;-0.698;2024-02-23T12:30:15;14.93;;;4.60;;
46717;SDS011;32448;44.960;-0.698;2024-02-23T12:32:44;15.30;;;3.38;;
46717;SDS011;32448;44.960;-0.698;2024-02-23T12:35:11;10.95;;;4.00;;
46717;SDS011;32448;44.960;-0.698;2024-02-23T12:37:39;12.02;;;2.60;;
46717;SDS011;32448;44.960;-0.698;2024-02-23T12:40:13;16.63;;;3.28;;
46717;SDS011;32448;44.960;-0.698;2024-02-23T12:42:40;14.18;;;3.42;;
46717;SDS011;32448;44.960;-0.698;2024-02-23T12:45:07;10.07;;;2.00;;
46717;SDS011;32448;44.960;-0.698;2024-02-23T12:47:34;11.50;;;2.03;;
46717;SDS011;32448;44.960;-0.698;2024-02-23T12:50:01;9.93;;;2.38;;
46717;SDS011;32448;44.960;-0.698;2024-02-23T12:52:28;8.98;;;1.88;;
46717;SDS011;32448;44.960;-0.698;2024-02-23T12:54:55;5.97;;;1.80;;
46717;SDS011;32448;44.960;-0.698;2024-02-23T12:57:22;6.95;;;1.88;;
46717;SDS011;32448;44.960;-0.698;2024-02-23T12:59:49;5.55;;;1.38;;
46717;SDS011;32448;44.960;-0.698;2024-02-23T13:02:16;9.50;;;2.20;;
46717;SDS011;32448;44.960;-0.698;2024-02-23T13:04:43;7.10;;;2.13;;
46717;SDS011;32448;44.960;-0.698;2024-02-23T13:07:15;8.80;;;1.92;;
46717;SDS011;32448;44.960;-0.698;2024-02-23T13:09:43;11.48;;;2.40;;
46717;SDS011;32448;44.960;-0.698;2024-02-23T13:12:10;10.52;;;2.72;;
46717;SDS011;32448;44.960;-0.698;2024-02-23T13:14:37;10.80;;;3.13;;
46717;SDS011;32448;44.960;-0.698;2024-02-23T13:17:04;10.50;;;3.10;;
46717;SDS011;32448;44.960;-0.698;2024-02-23T13:19:31;10.63;;;2.10;;
46717;SDS011;32448;44.960;-0.698;2024-02-23T13:21:58;9.45;;;1.90;;
46717;SDS011;32448;44.960;-0.698;2024-02-23T13:24:27;10.25;;;2.80;;
46717;SDS011;32448;44.960;-0.698;2024-02-23T13:26:54;8.32;;;2.20;;
46717;SDS011;32448;44.960;-0.698;2024-02-23T13:29:21;10.07;;;2.03;;
46717;SDS011;32448;44.960;-0.698;2024-02-23T13:31:48;12.20;;;2.85;;
46717;SDS011;32448;44.960;-0.698;2024-02-23T13:34:15;10.57;;;3.45;;
46717;SDS011;32448;44.960;-0.698;2024-02-23T13:36:44;17.88;;;4.35;;
46717;SDS011;32448;44.960;-0.698;2024-02-23T13:39:11;13.60;;;2.60;;
46717;SDS011;32448;44.960;-0.698;2024-02-23T13:41:38;9.45;;;2.25;;
46717;SDS011;32448;44.960;-0.698;2024-02-23T13:44:04;11.05;;;2.28;;
46717;SDS011;32448;44.960;-0.698;2024-02-23T13:46:31;10.18;;;2.47;;
46717;SDS011;32448;44.960;-0.698;2024-02-23T13:49:04;16.08;;;3.58;;
46717;SDS011;32448;44.960;-0.698;2024-02-23T13:51:34;13.25;;;3.30;;
46717;SDS011;32448;44.960;-0.698;2024-02-23T13:54:01;16.55;;;2.50;;
46717;SDS011;32448;44.960;-0.698;2024-02-23T13:56:28;9.38;;;1.63;;
46717;SDS011;32448;44.960;-0.698;2024-02-23T13:58:54;17.40;;;2.53;;
46717;SDS011;32448;44.960;-0.698;2024-02-23T14:01:21;8.35;;;1.90;;
46717;SDS011;32448;44.960;-0.698;2024-02-23T14:03:48;9.35;;;1.85;;
46717;SDS011;32448;44.960;-0.698;2024-02-23T14:06:15;13.85;;;2.15;;
46717;SDS011;32448;44.960;-0.698;2024-02-23T14:08:42;13.50;;;2.47;;
46717;SDS011;32448;44.960;-0.698;2024-02-23T14:11:11;10.75;;;1.83;;
46717;SDS011;32448;44.960;-0.698;2024-02-23T14:13:38;12.00;;;2.38;;
46717;SDS011;32448;44.960;-0.698;2024-02-23T14:16:05;12.73;;;1.95;;
46717;SDS011;32448;44.960;-0.698;2024-02-23T14:18:32;12.68;;;1.88;;
46717;SDS011;32448;44.960;-0.698;2024-02-23T14:21:04;13.15;;;1.83;;
46717;SDS011;32448;44.960;-0.698;2024-02-23T14:23:31;9.60;;;1.73;;
46717;SDS011;32448;44.960;-0.698;2024-02-23T14:25:58;10.23;;;1.73;;